Pagrindinis puslapis
METAR-TAF:

METAR-TAF

Oro uostai :

Bara do Garsasas, Mato Grosas, Brazilija

platuma: 15-52S, ilguma: 052-23W, Aukštis: 350 m

Dabartinis oras

Ataskaita buvo paskelbta 7 valandos ir 28 minutes, ne 21:00 UTC
Vėjas 2 kt iš Rytų
Temperatūra 26°C
Drėgmė 89%
Slėgis 1011 hPa
Matomumas 10 km arba daugiau
Išsisklaidę debesys ne aukštis 1800 ft
Mažai debesys ne aukštis 2500 ft, Liūtiniai kamuoliniai debesys.
Išsisklaidę debesys ne aukštis 7000 ft
Su prošvaistėmis ne aukštis 9000 ft
perkūnija

METAR: SBBW 212100Z 08002KT 9999 TS SCT018 FEW025CB SCT070 BKN090 26/24 Q1011

Laikas: 00:28 (04:28 UTC)

Prognozė

Ataskaita buvo paskelbta 6 valandos ir 28 minutes, ne 22:00 UTC
Prognozė galioja nuo 22 metu 00 UTC su 22 metu 12 UTC
Vėjas 5 kt iš Šiaurės Rytų
Matomumas 10 km arba daugiau
Išsisklaidę debesys ne aukštis 1000 ft

TAF: SBBW 212200Z 2200/2212 04005KT 9999 SCT010 TN24/2206Z TX27/2212Z RMK PAZ

Orai ataskaitas ir orų prognozės (METAR, TAF).

turimą stotys yra geltonos ir raudonos taškus žemėlapyje.

Perkelti pele per norėdami pamatyti stoties vardą.

Tada spustelėkite, norėdami matyti oro stebėjimo ir prognozės.

Norėdami pakeisti žemėlapį: spustelėkite ant žalios mygtukų su juodo kryžiaus žemyn,; žalią mygtuką su brūkšneliu, jei norite nutolinti; arba žalių rodyklių gretimoms žemėlapius.


METAR-TAF: